createdAt,value
2023-03-05T00:00:11.938Z,78.88
2023-03-05T00:01:14.145Z,78.41
2023-03-05T00:02:11.883Z,78.41
2023-03-05T00:03:12.010Z,78.59
2023-03-05T00:04:11.908Z,78.50
2023-03-05T00:05:11.678Z,78.59
2023-03-05T00:06:11.769Z,79.45
2023-03-05T00:07:11.579Z,79.17
2023-03-05T00:08:13.781Z,79.17
2023-03-05T00:09:11.510Z,79.45
2023-03-05T00:10:11.436Z,78.69
2023-03-05T00:11:11.776Z,78.69
2023-03-05T00:12:11.340Z,78.69
2023-03-05T00:13:12.487Z,78.88
2023-03-05T00:14:11.238Z,79.17
2023-03-05T00:15:11.274Z,79.26
2023-03-05T00:16:11.243Z,79.17
2023-03-05T00:17:12.309Z,79.36
2023-03-05T00:18:11.045Z,79.93
2023-03-05T00:19:11.112Z,79.83
2023-03-05T00:20:10.950Z,80.11
2023-03-05T00:21:10.901Z,80.40
2023-03-05T00:22:11.067Z,80.58
2023-03-05T00:23:11.034Z,80.40
2023-03-05T00:24:10.762Z,80.02
2023-03-05T00:25:11.956Z,80.02
2023-03-05T00:26:10.661Z,80.02
2023-03-05T00:27:10.604Z,80.02
2023-03-05T00:28:10.600Z,80.02
2023-03-05T00:29:10.726Z,80.02
2023-03-05T00:30:10.470Z,80.21
2023-03-05T00:31:10.621Z,80.11
2023-03-05T00:32:10.403Z,80.02
2023-03-05T00:33:10.477Z,79.93
2023-03-05T00:34:12.583Z,79.93
2023-03-05T00:35:10.290Z,79.64
2023-03-05T00:36:10.178Z,79.83
2023-03-05T00:37:11.244Z,79.45
2023-03-05T00:38:11.241Z,79.55
2023-03-05T00:39:10.048Z,78.98
2023-03-05T00:40:10.252Z,79.55
2023-03-05T00:41:09.934Z,79.36
2023-03-05T00:42:12.078Z,79.74
2023-03-05T00:43:09.841Z,79.55
2023-03-05T00:44:09.808Z,79.36
2023-03-05T00:45:10.984Z,79.64
2023-03-05T00:46:09.882Z,79.45
2023-03-05T00:47:09.724Z,79.64
2023-03-05T00:48:09.592Z,79.45
2023-03-05T00:49:09.559Z,79.45
2023-03-05T00:50:09.497Z,78.98
2023-03-05T00:51:30.699Z,79.26
2023-03-05T00:52:09.400Z,79.17
2023-03-05T00:53:09.506Z,79.36
2023-03-05T00:54:09.311Z,78.59
2023-03-05T00:55:09.256Z,78.79
2023-03-05T00:56:09.214Z,78.50
2023-03-05T00:57:30.623Z,78.59
2023-03-05T00:58:09.130Z,78.69
2023-03-05T00:59:09.139Z,78.59
2023-03-05T01:00:09.018Z,78.50
2023-03-05T01:01:08.968Z,79.07
2023-03-05T01:02:09.216Z,79.55
2023-03-05T01:03:08.889Z,79.36
2023-03-05T01:04:08.959Z,79.45
2023-03-05T01:05:08.796Z,79.50
2023-03-05T01:06:08.733Z,80.02
2023-03-05T01:07:08.661Z,79.98
2023-03-05T01:08:32.031Z,80.11
2023-03-05T01:09:08.565Z,80.45
2023-03-05T01:10:08.515Z,80.55
2023-03-05T01:11:08.699Z,80.68
2023-03-05T01:12:08.412Z,80.58
2023-03-05T01:13:08.503Z,80.40
2023-03-05T01:14:08.338Z,80.68
2023-03-05T01:15:08.514Z,80.30
2023-03-05T01:16:08.265Z,80.02
2023-03-05T01:17:08.279Z,80.02
2023-03-05T01:18:08.117Z,79.93
2023-03-05T01:19:09.262Z,80.02
2023-03-05T01:20:09.273Z,80.11
2023-03-05T01:21:08.052Z,80.21
2023-03-05T01:22:07.922Z,79.45
2023-03-05T01:23:07.877Z,79.74
2023-03-05T01:24:07.828Z,79.74
2023-03-05T01:25:07.863Z,79.36
2023-03-05T01:26:07.747Z,79.36
2023-03-05T01:27:07.887Z,79.26
2023-03-05T01:28:07.630Z,78.69
2023-03-05T01:29:07.586Z,78.45
2023-03-05T01:30:07.696Z,78.73
2023-03-05T01:31:07.529Z,78.54
2023-03-05T01:32:10.000Z,78.64
2023-03-05T01:33:07.390Z,78.07
2023-03-05T01:34:07.350Z,77.69
2023-03-05T01:35:07.303Z,77.88
2023-03-05T01:36:07.334Z,77.31
2023-03-05T01:37:07.197Z,77.78
2023-03-05T01:38:07.349Z,77.03
2023-03-05T01:39:07.108Z,76.74
2023-03-05T01:40:07.055Z,77.50
2023-03-05T01:41:07.018Z,76.93
2023-03-05T01:42:07.115Z,76.84
2023-03-05T01:43:06.927Z,77.22
2023-03-05T01:44:07.128Z,76.55
2023-03-05T01:45:06.815Z,76.36
2023-03-05T01:46:06.807Z,76.46
2023-03-05T01:47:06.718Z,76.17
2023-03-05T01:48:06.755Z,75.79
2023-03-05T01:49:06.626Z,75.70
2023-03-05T01:50:06.768Z,75.64
2023-03-05T01:51:06.532Z,74.79
2023-03-05T01:52:06.680Z,75.07
2023-03-05T01:53:06.440Z,75.07
2023-03-05T01:54:07.573Z,75.17
2023-03-05T01:55:06.336Z,74.22
2023-03-05T01:56:07.525Z,74.69
2023-03-05T01:57:06.357Z,73.84
2023-03-05T01:58:06.195Z,74.03
2023-03-05T01:59:06.374Z,74.32
2023-03-05T02:00:06.108Z,74.13
2023-03-05T02:01:06.222Z,74.22
2023-03-05T02:02:06.033Z,73.94
2023-03-05T02:03:05.956Z,74.13
2023-03-05T02:04:05.999Z,73.94
2023-03-05T02:05:05.859Z,73.84
2023-03-05T02:06:28.137Z,74.03
2023-03-05T02:07:05.764Z,74.13
2023-03-05T02:08:05.721Z,74.03
2023-03-05T02:09:05.673Z,73.94
2023-03-05T02:10:06.803Z,74.03
2023-03-05T02:11:05.571Z,74.03
2023-03-05T02:12:05.646Z,73.46
2023-03-05T02:13:05.478Z,72.80
2023-03-05T02:14:05.437Z,73.08
2023-03-05T02:15:05.382Z,73.18
2023-03-05T02:16:05.685Z,72.80
2023-03-05T02:17:05.297Z,72.80
2023-03-05T02:18:05.648Z,72.52
2023-03-05T02:19:05.203Z,72.80
2023-03-05T02:20:05.150Z,72.55
2023-03-05T02:21:05.308Z,71.98
2023-03-05T02:22:05.056Z,72.08
2023-03-05T02:23:07.166Z,72.08
2023-03-05T02:24:04.984Z,72.17
2023-03-05T02:25:04.918Z,71.60
2023-03-05T02:26:04.866Z,71.41
2023-03-05T02:27:04.955Z,71.32
2023-03-05T02:28:04.769Z,71.51
2023-03-05T02:29:04.960Z,71.70
2023-03-05T02:30:05.042Z,71.70
2023-03-05T02:31:04.626Z,71.70
2023-03-05T02:32:04.732Z,71.41
2023-03-05T02:33:04.541Z,71.80
2023-03-05T02:34:04.687Z,71.13
2023-03-05T02:35:04.448Z,71.41
2023-03-05T02:36:04.703Z,71.51
2023-03-05T02:37:04.341Z,71.51
2023-03-05T02:38:04.507Z,71.41
2023-03-05T02:39:04.262Z,71.41
2023-03-05T02:40:04.318Z,71.80
2023-03-05T02:41:04.169Z,71.98
2023-03-05T02:42:04.386Z,71.89
2023-03-05T02:43:04.058Z,71.89
2023-03-05T02:44:04.147Z,72.08
2023-03-05T02:45:03.964Z,71.89
2023-03-05T02:46:04.135Z,72.17
2023-03-05T02:47:03.871Z,71.89
2023-03-05T02:48:03.822Z,72.17
2023-03-05T02:49:03.976Z,71.89
2023-03-05T02:50:04.858Z,72.27
2023-03-05T02:51:03.791Z,72.08
2023-03-05T02:52:03.627Z,72.08
2023-03-05T02:53:03.613Z,71.89
2023-03-05T02:54:03.541Z,72.17
2023-03-05T02:55:03.614Z,72.08
2023-03-05T02:56:03.443Z,72.27
2023-03-05T02:57:03.624Z,72.27
2023-03-05T02:58:03.348Z,72.27
2023-03-05T02:59:05.537Z,72.55
2023-03-05T03:00:03.396Z,71.70
2023-03-05T03:01:03.341Z,72.08
2023-03-05T03:02:03.158Z,71.89
2023-03-05T03:03:03.284Z,71.70
2023-03-05T03:04:03.066Z,71.70
2023-03-05T03:05:03.024Z,71.41
2023-03-05T03:06:04.310Z,71.22
2023-03-05T03:07:02.920Z,71.51
2023-03-05T03:08:04.119Z,71.41
2023-03-05T03:09:02.828Z,71.70
2023-03-05T03:10:02.778Z,71.70
2023-03-05T03:11:02.742Z,71.70
2023-03-05T03:12:03.943Z,71.41
2023-03-05T03:13:02.641Z,71.51
2023-03-05T03:14:02.728Z,71.03
2023-03-05T03:15:02.545Z,71.22
2023-03-05T03:16:02.500Z,71.41
2023-03-05T03:17:02.593Z,70.75
2023-03-05T03:18:04.761Z,71.13
2023-03-05T03:19:02.458Z,70.65
2023-03-05T03:20:02.309Z,71.13
2023-03-05T03:21:02.475Z,70.84
2023-03-05T03:22:02.214Z,71.41
2023-03-05T03:23:03.349Z,71.41
2023-03-05T03:24:02.233Z,71.13
2023-03-05T03:25:02.307Z,71.41
2023-03-05T03:26:02.031Z,71.32
2023-03-05T03:27:02.008Z,71.03
2023-03-05T03:28:01.949Z,71.51
2023-03-05T03:29:02.155Z,71.03
2023-03-05T03:30:03.228Z,71.22
2023-03-05T03:31:02.009Z,71.60
2023-03-05T03:32:01.817Z,71.70
2023-03-05T03:33:01.892Z,71.22
2023-03-05T03:34:03.905Z,71.32
2023-03-05T03:35:01.603Z,71.51
2023-03-05T03:36:01.664Z,71.60
2023-03-05T03:37:01.505Z,71.03
2023-03-05T03:38:01.460Z,71.51
2023-03-05T03:39:01.537Z,71.32
2023-03-05T03:40:02.522Z,71.32
2023-03-05T03:41:01.323Z,71.41
2023-03-05T03:42:01.508Z,71.41
2023-03-05T03:43:01.228Z,71.89
2023-03-05T03:44:01.182Z,71.89
2023-03-05T03:45:02.523Z,71.51
2023-03-05T03:46:01.123Z,71.41
2023-03-05T03:47:02.182Z,71.80
2023-03-05T03:48:01.001Z,71.51
2023-03-05T03:49:01.156Z,71.70
2023-03-05T03:50:00.899Z,71.41
2023-03-05T03:51:01.083Z,71.22
2023-03-05T03:52:00.797Z,71.51
2023-03-05T03:53:00.975Z,70.98
2023-03-05T03:54:00.711Z,71.13
2023-03-05T03:55:00.667Z,71.22
2023-03-05T03:56:00.609Z,71.07
2023-03-05T03:57:00.804Z,70.31
2023-03-05T03:58:00.525Z,70.69
2023-03-05T03:59:02.657Z,70.59
2023-03-05T04:00:00.429Z,70.21
2023-03-05T04:01:00.381Z,69.74
2023-03-05T04:02:00.343Z,70.03
2023-03-05T04:03:00.401Z,69.74
2023-03-05T04:04:00.376Z,69.65
2023-03-05T04:05:00.190Z,69.84
2023-03-05T04:06:00.140Z,69.27
2023-03-05T04:07:00.100Z,69.17
2023-03-05T04:08:01.206Z,69.08
2023-03-05T04:09:00.016Z,68.89
2023-03-05T04:10:00.110Z,68.89
2023-03-05T04:10:59.908Z,68.79
2023-03-05T04:11:59.865Z,68.79
2023-03-05T04:12:59.813Z,68.60
2023-03-05T04:13:59.902Z,68.51
2023-03-05T04:15:00.987Z,68.41
2023-03-05T04:15:59.851Z,68.41
2023-03-05T04:16:59.624Z,68.89
2023-03-05T04:17:59.581Z,69.46
2023-03-05T04:19:00.654Z,69.17
2023-03-05T04:19:59.480Z,69.08
2023-03-05T04:21:01.697Z,69.46
2023-03-05T04:21:59.388Z,69.27
2023-03-05T04:22:59.348Z,69.74
2023-03-05T04:23:59.289Z,69.84
2023-03-05T04:25:00.408Z,70.03
2023-03-05T04:25:59.200Z,70.12
2023-03-05T04:26:59.425Z,71.03
2023-03-05T04:27:59.106Z,70.75
2023-03-05T04:28:59.058Z,70.94
2023-03-05T04:29:59.002Z,71.41
2023-03-05T04:30:59.283Z,71.55
2023-03-05T04:31:58.968Z,71.73
2023-03-05T04:32:59.220Z,71.07
2023-03-05T04:33:58.817Z,71.22
2023-03-05T04:34:58.772Z,71.55
2023-03-05T04:35:58.876Z,71.55
2023-03-05T04:36:58.671Z,71.26
2023-03-05T04:38:00.892Z,71.26
2023-03-05T04:38:58.809Z,71.26
2023-03-05T04:39:58.528Z,71.26
2023-03-05T04:40:58.484Z,71.26
2023-03-05T04:41:59.696Z,70.88
2023-03-05T04:42:58.395Z,70.78
2023-03-05T04:43:58.480Z,70.78
2023-03-05T04:44:58.320Z,71.26
2023-03-05T04:45:58.250Z,71.26
2023-03-05T04:46:58.215Z,70.31
2023-03-05T04:47:58.400Z,70.40
2023-03-05T04:48:58.114Z,70.31
2023-03-05T04:49:58.210Z,69.93
2023-03-05T04:50:58.270Z,70.12
2023-03-05T04:51:58.230Z,70.03
2023-03-05T04:52:57.912Z,70.12
2023-03-05T04:53:59.067Z,70.21
2023-03-05T04:54:57.820Z,69.93
2023-03-05T04:55:59.078Z,70.12
2023-03-05T04:56:57.755Z,70.21
2023-03-05T04:57:58.114Z,70.21
2023-03-05T04:58:57.870Z,69.84
2023-03-05T04:59:57.584Z,69.65
2023-03-05T05:00:57.684Z,69.93
2023-03-05T05:01:57.758Z,69.55
2023-03-05T05:02:57.493Z,68.89
2023-03-05T05:03:58.728Z,68.89
2023-03-05T05:04:57.358Z,69.08
2023-03-05T05:06:05.429Z,68.89
2023-03-05T05:06:58.556Z,68.79
2023-03-05T05:07:57.209Z,69.27
2023-03-05T05:08:57.349Z,68.79
2023-03-05T05:09:57.138Z,68.98
2023-03-05T05:10:58.342Z,68.98
2023-03-05T05:11:57.023Z,68.79
2023-03-05T05:12:57.056Z,68.79
2023-03-05T05:13:56.930Z,68.51
2023-03-05T05:14:57.168Z,68.51
2023-03-05T05:15:57.059Z,68.32
2023-03-05T05:17:18.893Z,68.51
2023-03-05T05:17:56.740Z,68.41
2023-03-05T05:18:56.995Z,68.23
2023-03-05T05:19:56.820Z,68.51
2023-03-05T05:20:57.825Z,68.41
2023-03-05T05:21:56.577Z,68.32
2023-03-05T05:22:56.824Z,68.70
2023-03-05T05:23:56.456Z,68.23
2023-03-05T05:24:56.410Z,68.13
2023-03-05T05:25:57.613Z,67.94
2023-03-05T05:26:56.439Z,67.37
2023-03-05T05:27:56.273Z,67.27
2023-03-05T05:28:56.352Z,67.46
2023-03-05T05:29:56.180Z,67.37
2023-03-05T05:30:56.132Z,67.46
2023-03-05T05:31:56.227Z,67.85
2023-03-05T05:32:56.193Z,68.13
2023-03-05T05:33:55.986Z,68.32
2023-03-05T05:34:56.186Z,68.23
2023-03-05T05:35:55.943Z,68.23
2023-03-05T05:36:55.912Z,68.32
2023-03-05T05:37:55.847Z,68.41
2023-03-05T05:38:56.014Z,68.51
2023-03-05T05:39:55.762Z,68.98
2023-03-05T05:40:55.752Z,69.08
2023-03-05T05:41:55.752Z,68.70
2023-03-05T05:42:55.600Z,68.41
2023-03-05T05:43:55.748Z,68.32
2023-03-05T05:44:55.511Z,68.70
2023-03-05T05:45:55.817Z,68.51
2023-03-05T05:46:55.377Z,68.04
2023-03-05T05:47:55.377Z,68.23
2023-03-05T05:48:55.589Z,67.94
2023-03-05T05:49:55.243Z,68.41
2023-03-05T05:50:55.388Z,68.70
2023-03-05T05:51:55.144Z,68.79
2023-03-05T05:52:55.100Z,68.79
2023-03-05T05:53:55.266Z,68.51
2023-03-05T05:54:55.216Z,68.51
2023-03-05T05:55:54.971Z,68.41
2023-03-05T05:56:55.128Z,68.79
2023-03-05T05:57:54.860Z,68.41
2023-03-05T05:58:54.816Z,68.32
2023-03-05T05:59:54.945Z,68.60
2023-03-05T06:03:46.888Z,68.04
2023-03-05T06:04:46.497Z,67.94
2023-03-05T06:05:47.511Z,68.70
2023-03-05T06:06:46.404Z,69.08
2023-03-05T06:07:46.521Z,69.65
2023-03-05T06:08:46.299Z,69.65
2023-03-05T06:09:46.274Z,69.61
2023-03-05T06:10:46.208Z,69.80
2023-03-05T06:11:46.348Z,70.31
2023-03-05T06:12:46.110Z,69.80
2023-03-05T06:13:46.142Z,69.93
2023-03-05T06:14:46.014Z,70.09
2023-03-05T06:15:46.201Z,70.03
2023-03-05T06:16:45.964Z,69.99
2023-03-05T06:17:45.965Z,70.03
2023-03-05T06:18:45.823Z,70.28
2023-03-05T06:19:45.978Z,69.74
2023-03-05T06:20:45.745Z,69.33
2023-03-05T06:21:45.699Z,69.55
2023-03-05T06:22:45.810Z,69.17
2023-03-05T06:23:45.592Z,69.13
2023-03-05T06:24:45.604Z,68.85
2023-03-05T06:25:45.492Z,68.98
2023-03-05T06:26:46.714Z,68.76
2023-03-05T06:27:45.392Z,69.27
2023-03-05T06:28:45.430Z,69.08
2023-03-05T06:29:45.312Z,68.98
2023-03-05T06:30:46.522Z,68.79
2023-03-05T06:31:45.225Z,69.17
2023-03-05T06:32:45.223Z,68.89
2023-03-05T06:33:45.113Z,69.27
2023-03-05T06:34:45.265Z,69.08
2023-03-05T06:35:45.045Z,69.27
2023-03-05T06:36:45.295Z,69.17
2023-03-05T06:37:44.936Z,68.98
2023-03-05T06:38:44.875Z,68.98
2023-03-05T06:39:44.895Z,68.89
2023-03-05T06:40:44.782Z,68.70
2023-03-05T06:41:44.810Z,68.79
2023-03-05T06:42:44.864Z,68.79
2023-03-05T06:43:44.669Z,68.51
2023-03-05T06:44:45.953Z,68.41
2023-03-05T06:45:44.672Z,68.41
2023-03-05T06:46:44.501Z,68.23
2023-03-05T06:47:44.856Z,68.41
2023-03-05T06:48:44.413Z,68.04
2023-03-05T06:49:44.363Z,68.51
2023-03-05T06:50:46.514Z,68.79
2023-03-05T06:51:44.268Z,69.46
2023-03-05T06:52:45.297Z,69.27
2023-03-05T06:53:44.193Z,69.17
2023-03-05T06:54:44.188Z,69.46
2023-03-05T06:55:44.076Z,69.55
2023-03-05T06:56:44.227Z,69.36
2023-03-05T06:57:43.987Z,69.08
2023-03-05T06:58:44.116Z,68.98
2023-03-05T06:59:44.021Z,68.79
2023-03-05T07:00:43.854Z,68.98
2023-03-05T07:01:43.799Z,68.83
2023-03-05T07:02:43.997Z,68.26
2023-03-05T07:03:43.697Z,67.88
2023-03-05T07:04:43.728Z,67.40
2023-03-05T07:05:43.635Z,67.79
2023-03-05T07:06:43.817Z,67.79
2023-03-05T07:07:43.570Z,67.88
2023-03-05T07:08:43.468Z,67.40
2023-03-05T07:09:44.581Z,67.02
2023-03-05T07:10:43.371Z,66.83
2023-03-05T07:11:43.347Z,67.02
2023-03-05T07:12:43.668Z,66.83
2023-03-05T07:13:43.407Z,66.46
2023-03-05T07:14:43.194Z,66.64
2023-03-05T07:15:44.291Z,66.17
2023-03-05T07:16:43.115Z,66.27
2023-03-05T07:17:43.051Z,65.50
2023-03-05T07:18:43.142Z,65.60
2023-03-05T07:19:42.959Z,65.41
2023-03-05T07:20:42.945Z,65.41
2023-03-05T07:21:42.861Z,65.60
2023-03-05T07:22:44.035Z,65.31
2023-03-05T07:23:42.758Z,65.41
2023-03-05T07:24:42.768Z,65.98
2023-03-05T07:25:42.671Z,65.16
2023-03-05T07:26:42.787Z,65.35
2023-03-05T07:27:42.584Z,65.73
2023-03-05T07:28:42.563Z,65.73
2023-03-05T07:29:42.604Z,65.44
2023-03-05T07:30:42.452Z,65.44
2023-03-05T07:31:42.619Z,65.25
2023-03-05T07:32:42.356Z,65.54
2023-03-05T07:33:42.436Z,65.44
2023-03-05T07:34:42.377Z,64.97
2023-03-05T07:35:43.407Z,64.87
2023-03-05T07:36:42.172Z,64.69
2023-03-05T07:37:42.355Z,64.14
2023-03-05T07:38:42.085Z,64.24
2023-03-05T07:39:42.023Z,64.24
2023-03-05T07:40:42.170Z,63.95
2023-03-05T07:41:41.928Z,64.05
2023-03-05T07:42:42.026Z,63.57
2023-03-05T07:43:41.835Z,63.67
2023-03-05T07:44:42.050Z,63.20
2023-03-05T07:45:41.753Z,62.91
2023-03-05T07:46:42.125Z,63.01
2023-03-05T07:47:41.658Z,63.10
2023-03-05T07:48:41.831Z,62.34
2023-03-05T07:49:41.614Z,62.62
2023-03-05T07:50:41.518Z,62.53
2023-03-05T07:51:41.467Z,62.62
2023-03-05T07:52:41.641Z,62.62
2023-03-05T07:53:41.378Z,62.43
2023-03-05T07:54:41.465Z,62.62
2023-03-05T07:55:41.292Z,62.72
2023-03-05T07:56:41.236Z,62.34
2023-03-05T07:57:41.278Z,62.62
2023-03-05T07:58:41.336Z,62.34
2023-03-05T07:59:42.313Z,62.72
2023-03-05T08:00:41.070Z,61.96
2023-03-05T08:01:41.030Z,61.96
2023-03-05T08:02:41.005Z,61.48
2023-03-05T08:03:41.129Z,61.29
2023-03-05T08:04:40.880Z,61.68
2023-03-05T08:05:40.927Z,61.39
2023-03-05T08:06:40.781Z,61.39
2023-03-05T08:07:40.769Z,61.58
2023-03-05T08:08:42.940Z,60.94
2023-03-05T08:09:40.846Z,61.13
2023-03-05T08:10:40.593Z,61.10
2023-03-05T08:11:42.702Z,60.85
2023-03-05T08:12:40.511Z,60.38
2023-03-05T08:13:40.613Z,60.28
2023-03-05T08:14:48.227Z,60.09
2023-03-05T08:15:40.663Z,59.99
2023-03-05T08:16:40.315Z,59.90
2023-03-05T08:17:40.602Z,60.09
2023-03-05T08:18:41.333Z,59.71
2023-03-05T08:19:48.321Z,59.14
2023-03-05T08:20:40.321Z,59.52
2023-03-05T08:21:40.100Z,59.42
2023-03-05T08:22:40.327Z,59.23
2023-03-05T08:23:40.006Z,59.23
2023-03-05T08:24:39.960Z,59.07
2023-03-05T08:25:39.922Z,59.07
2023-03-05T08:26:39.943Z,59.07
2023-03-05T08:27:39.820Z,58.59
2023-03-05T08:29:01.261Z,58.12
2023-03-05T08:29:39.729Z,58.28
2023-03-05T08:30:39.683Z,58.40
2023-03-05T08:31:39.830Z,58.22
2023-03-05T08:32:39.610Z,58.40
2023-03-05T08:33:39.795Z,58.12
2023-03-05T08:34:39.517Z,57.84
2023-03-05T08:35:39.467Z,57.74
2023-03-05T08:36:39.417Z,57.65
2023-03-05T08:37:39.617Z,57.65
2023-03-05T08:38:39.321Z,57.93
2023-03-05T08:39:40.658Z,57.74
2023-03-05T08:40:39.226Z,57.65
2023-03-05T08:41:39.217Z,57.36
2023-03-05T08:42:39.250Z,57.26
2023-03-05T08:43:39.095Z,56.98
2023-03-05T08:44:39.164Z,56.88
2023-03-05T08:45:39.326Z,56.88
2023-03-05T08:46:39.247Z,56.98
2023-03-05T08:47:38.913Z,56.60
2023-03-05T08:48:38.985Z,56.51
2023-03-05T08:49:38.819Z,56.70
2023-03-05T08:50:39.129Z,56.63
2023-03-05T08:51:38.800Z,56.63
2023-03-05T08:52:38.687Z,56.92
2023-03-05T08:53:38.657Z,55.87
2023-03-05T08:54:38.727Z,55.87
2023-03-05T08:55:38.552Z,55.10
2023-03-05T08:56:38.951Z,55.39
2023-03-05T08:57:38.455Z,55.10
2023-03-05T08:58:38.426Z,54.91
2023-03-05T08:59:38.573Z,55.39
2023-03-05T09:00:38.330Z,55.32
2023-03-05T09:01:38.407Z,54.94
2023-03-05T09:02:38.345Z,54.66
2023-03-05T09:03:38.226Z,54.37
2023-03-05T09:04:38.141Z,54.08
2023-03-05T09:05:40.353Z,53.70
2023-03-05T09:06:38.061Z,53.89
2023-03-05T09:07:38.103Z,53.89
2023-03-05T09:08:39.189Z,53.70
2023-03-05T09:09:37.925Z,53.42
2023-03-05T09:10:37.876Z,53.23
2023-03-05T09:11:38.953Z,53.23
2023-03-05T09:12:37.820Z,53.04
2023-03-05T09:13:37.838Z,52.87
2023-03-05T09:14:37.725Z,52.40
2023-03-05T09:15:37.653Z,51.82
2023-03-05T09:16:37.655Z,51.82
2023-03-05T09:17:38.688Z,51.73
2023-03-05T09:18:37.531Z,51.73
2023-03-05T09:19:37.680Z,52.11
2023-03-05T09:20:37.529Z,51.73
2023-03-05T09:21:37.405Z,50.97
2023-03-05T09:22:37.509Z,51.25
2023-03-05T09:23:37.298Z,51.09
2023-03-05T09:24:37.514Z,51.25
2023-03-05T09:25:39.616Z,50.99
2023-03-05T09:26:37.175Z,51.28
2023-03-05T09:27:37.120Z,51.09
2023-03-05T09:28:37.331Z,50.80
2023-03-05T09:29:37.045Z,50.32
2023-03-05T09:30:37.142Z,50.42
2023-03-05T09:31:36.998Z,50.42
2023-03-05T09:32:36.938Z,50.42
2023-03-05T09:33:36.861Z,49.95
2023-03-05T09:34:38.398Z,49.68
2023-03-05T09:35:36.823Z,49.11
2023-03-05T09:36:36.983Z,49.49
2023-03-05T09:37:36.694Z,49.30
2023-03-05T09:38:36.635Z,49.30
2023-03-05T09:39:36.594Z,49.21
2023-03-05T09:40:37.626Z,49.40
2023-03-05T09:41:36.658Z,48.54
2023-03-05T09:42:36.717Z,49.40
2023-03-05T09:43:36.413Z,48.63
2023-03-05T09:44:36.371Z,48.54
2023-03-05T09:45:36.544Z,48.83
2023-03-05T09:46:36.307Z,48.83
2023-03-05T09:47:36.346Z,48.73
2023-03-05T09:48:36.194Z,48.73
2023-03-05T09:49:36.151Z,48.54
2023-03-05T09:50:36.114Z,48.63
2023-03-05T09:51:37.203Z,48.83
2023-03-05T09:52:37.458Z,48.54
2023-03-05T09:53:36.186Z,48.54
2023-03-05T09:54:35.938Z,48.44
2023-03-05T09:55:35.895Z,48.16
2023-03-05T09:56:36.924Z,47.68
2023-03-05T09:57:35.804Z,47.68
2023-03-05T09:58:35.916Z,47.68
2023-03-05T09:59:36.039Z,47.49
2023-03-05T10:00:35.954Z,47.97
2023-03-05T10:01:35.635Z,47.97
2023-03-05T10:02:35.737Z,48.25
2023-03-05T10:03:35.598Z,48.16
2023-03-05T10:04:35.753Z,47.99
2023-03-05T10:05:35.473Z,47.80
2023-03-05T10:06:35.416Z,47.89
2023-03-05T10:07:35.371Z,47.80
2023-03-05T10:08:37.419Z,47.42
2023-03-05T10:09:36.926Z,47.13
2023-03-05T10:10:35.593Z,47.03
2023-03-05T10:11:35.197Z,46.82
2023-03-05T10:12:35.176Z,47.32
2023-03-05T10:13:35.382Z,47.03
2023-03-05T10:14:35.068Z,47.23
2023-03-05T10:15:35.122Z,47.61
2023-03-05T10:16:35.041Z,47.03
2023-03-05T10:17:34.939Z,46.94
2023-03-05T10:18:34.915Z,46.56
2023-03-05T10:19:34.941Z,46.47
2023-03-05T10:20:34.814Z,46.47
2023-03-05T10:21:35.989Z,46.27
2023-03-05T10:22:35.023Z,46.37
2023-03-05T10:23:34.688Z,46.39
2023-03-05T10:24:34.777Z,46.11
2023-03-05T10:25:34.607Z,45.63
2023-03-05T10:26:55.745Z,45.92
2023-03-05T10:27:34.536Z,46.18
2023-03-05T10:28:35.641Z,46.11
2023-03-05T10:29:34.445Z,46.11
2023-03-05T10:30:34.615Z,45.82
2023-03-05T10:31:34.355Z,45.34
2023-03-05T10:32:34.545Z,45.25
2023-03-05T10:33:34.250Z,45.63
2023-03-05T10:34:34.796Z,45.34
2023-03-05T10:35:34.231Z,45.15
2023-03-05T10:36:34.252Z,45.63
2023-03-05T10:37:34.080Z,45.53
2023-03-05T10:38:34.268Z,45.06
2023-03-05T10:39:34.223Z,44.67
2023-03-05T10:40:34.176Z,44.89
2023-03-05T10:41:33.912Z,44.41
2023-03-05T10:42:33.988Z,44.41
2023-03-05T10:43:33.823Z,44.12
2023-03-05T10:44:34.003Z,44.31
2023-03-05T10:45:33.772Z,43.65
2023-03-05T10:46:34.840Z,43.84
2023-03-05T10:47:33.819Z,44.02
2023-03-05T10:48:33.608Z,43.93
2023-03-05T10:49:33.834Z,44.05
2023-03-05T10:50:33.522Z,44.34
2023-03-05T10:51:33.522Z,43.48
2023-03-05T10:52:33.649Z,42.73
2023-03-05T10:53:33.842Z,42.64
2023-03-05T10:54:33.352Z,42.25
2023-03-05T10:55:33.470Z,42.25
2023-03-05T10:56:33.526Z,42.25
2023-03-05T10:57:33.495Z,42.07
2023-03-05T10:58:33.180Z,42.07
2023-03-05T10:59:33.135Z,41.97
2023-03-05T11:00:34.337Z,42.07
2023-03-05T11:01:33.088Z,41.49
2023-03-05T11:02:35.376Z,41.39
2023-03-05T11:03:32.962Z,41.51
2023-03-05T11:04:34.146Z,41.49
2023-03-05T11:05:41.380Z,41.32
2023-03-05T11:06:32.844Z,41.22
2023-03-05T11:07:32.831Z,41.22
2023-03-05T11:08:32.748Z,41.01
2023-03-05T11:09:32.709Z,41.01
2023-03-05T11:10:32.693Z,40.92
2023-03-05T11:11:32.623Z,41.20
2023-03-05T11:12:32.581Z,41.20
2023-03-05T11:13:32.536Z,41.03
2023-03-05T11:14:32.517Z,41.22
2023-03-05T11:15:32.461Z,40.65
2023-03-05T11:16:32.420Z,40.26
2023-03-05T11:17:32.369Z,39.81
2023-03-05T11:18:32.330Z,39.52
2023-03-05T11:19:32.281Z,39.62
2023-03-05T11:20:32.265Z,39.43
2023-03-05T11:21:32.201Z,39.52
2023-03-05T11:22:32.161Z,39.64
2023-03-05T11:23:32.119Z,38.78
2023-03-05T11:24:32.075Z,38.78
2023-03-05T11:25:32.040Z,38.20
2023-03-05T11:26:32.003Z,38.03
2023-03-05T11:27:31.960Z,37.55
2023-03-05T11:28:33.671Z,38.22
2023-03-05T11:29:31.882Z,37.65
2023-03-05T11:30:31.998Z,37.84
2023-03-05T11:31:31.804Z,37.74
2023-03-05T11:32:31.800Z,37.28
2023-03-05T11:33:31.709Z,36.98
2023-03-05T11:34:31.669Z,37.07
2023-03-05T11:35:31.655Z,37.36
2023-03-05T11:36:31.585Z,37.63
2023-03-05T11:37:31.578Z,37.82
2023-03-05T11:38:33.003Z,37.53
2023-03-05T11:39:31.464Z,38.37
2023-03-05T11:40:32.377Z,38.37
2023-03-05T11:41:31.389Z,38.28
2023-03-05T11:42:31.340Z,38.47
2023-03-05T11:43:31.342Z,37.82
2023-03-05T11:44:31.268Z,38.12
2023-03-05T11:45:31.212Z,38.14
2023-03-05T11:46:31.230Z,37.49
2023-03-05T11:47:31.133Z,36.65
2023-03-05T11:48:31.096Z,35.63
2023-03-05T11:49:31.683Z,33.91
2023-03-05T11:50:31.079Z,33.05
2023-03-05T11:51:30.979Z,33.26
2023-03-05T11:52:30.955Z,32.51
2023-03-05T11:53:30.901Z,31.85
2023-03-05T11:54:30.863Z,31.19
2023-03-05T11:55:30.836Z,30.32
2023-03-05T11:56:30.801Z,29.65
2023-03-05T11:57:30.751Z,29.76
2023-03-05T11:58:30.718Z,29.08
2023-03-05T11:59:30.702Z,28.81
2023-03-05T12:00:30.640Z,28.33
2023-03-05T12:01:30.605Z,28.34
2023-03-05T12:02:30.619Z,27.97
2023-03-05T12:03:30.579Z,27.49
2023-03-05T12:04:30.498Z,27.11
2023-03-05T12:05:30.474Z,27.00
2023-03-05T12:06:30.431Z,27.09
2023-03-05T12:07:30.404Z,27.17
2023-03-05T12:08:30.353Z,27.11
2023-03-05T12:09:30.328Z,27.59
2023-03-05T12:10:30.297Z,26.54
2023-03-05T12:11:30.289Z,26.33
2023-03-05T12:12:30.229Z,26.72
2023-03-05T12:13:30.177Z,27.11
2023-03-05T12:14:30.141Z,26.72
2023-03-05T12:15:30.108Z,27.02
2023-03-05T12:16:30.150Z,26.07
2023-03-05T12:17:30.039Z,24.71
2023-03-05T12:18:30.196Z,25.59
2023-03-05T12:19:29.976Z,25.78
2023-03-05T12:20:29.969Z,25.68
2023-03-05T12:21:29.916Z,24.82
2023-03-05T12:22:29.889Z,24.63
2023-03-05T12:23:29.881Z,24.15
2023-03-05T12:24:29.824Z,24.05
2023-03-05T12:25:29.765Z,23.87
2023-03-05T12:26:29.728Z,23.87
2023-03-05T12:27:29.707Z,23.68
2023-03-05T12:28:29.657Z,23.19
2023-03-05T12:29:29.729Z,23.39
2023-03-05T12:30:29.617Z,23.50
2023-03-05T12:31:29.579Z,23.40
2023-03-05T12:32:29.667Z,23.11
2023-03-05T12:33:29.490Z,23.02
2023-03-05T12:34:29.483Z,22.55
2023-03-05T12:35:29.451Z,22.17
2023-03-05T12:36:29.388Z,21.59
2023-03-05T12:37:29.356Z,20.92
2023-03-05T12:38:29.329Z,21.01
2023-03-05T12:39:29.300Z,21.12
2023-03-05T12:40:29.253Z,21.22
2023-03-05T12:41:29.452Z,21.33
2023-03-05T12:42:29.180Z,21.04
2023-03-05T12:43:29.165Z,20.57
2023-03-05T12:44:29.117Z,20.29
2023-03-05T12:45:29.104Z,20.29
2023-03-05T12:46:29.122Z,19.32
2023-03-05T12:47:29.018Z,19.42
2023-03-05T12:48:29.024Z,19.61
2023-03-05T12:49:28.954Z,19.04
2023-03-05T12:50:28.989Z,19.13
2023-03-05T12:51:29.061Z,18.95
2023-03-05T12:52:28.865Z,18.66
2023-03-05T12:53:28.818Z,19.04
2023-03-05T12:54:28.787Z,19.35